PWSweather.com
Personal Weather Stations
Station Observations
KMIEASTT1
Tawas Bay, East Tawas, MI 48730

Tawas BayEast Tawas, MI 48730

Lat: 44.28, Lon: -83.48

Elevation: 600

Station Type: Davis VantagePro

http://www.tawasbayweather.com

High Low Average
Temperature 38.8°F3.8°C 32.8°F0.4°C 36.0°F2.2°C
Dew Point 37.8°F3.2°C 30.7°F-0.7°C 34.2°F1.2°C
Winds 16.0 mph 25.7 kmh 4.0 mph 6.4 kmh 9.0 mph SSW14.5 kmh SSW
Wind Gusts 22.0 mph35.4 kmh 5.0 mph8.0 kmh 13.0 mph20.9 kmh
Humidity 97% 84% 93%
Pressure 29.93 in1013.5 mb 29.38 in994.9 mb -
Precipitation 0.00 in0.0 mm - -
Hour Temp Dew Point Humidity Winds Wind Gusts Pressure Precip Precip Rate Daily Precip Total
12:01 AM 35.2°F1.8°C 33.1°F0.6°C 92% 10.0 mph SE16.1 kmh SE 14.0 mph22.5 kmh 29.98 in1015.2 mb 0.00 in0.0 mm 0.00 in/hr0.0 mm/hr 0.00 in0.0 mm
12:15 AM 35.2°F1.8°C 33.1°F0.6°C 92% 12.0 mph SE19.3 kmh SE 14.0 mph22.5 kmh 29.96 in1014.6 mb 0.00 in0.0 mm 0.00 in/hr0.0 mm/hr 0.00 in0.0 mm
12:30 AM 35.3°F1.8°C 33.2°F0.7°C 92% 14.0 mph SE22.5 kmh SE 16.0 mph25.7 kmh 29.94 in1013.9 mb 0.00 in0.0 mm 0.00 in/hr0.0 mm/hr 0.00 in0.0 mm
12:45 AM 35.5°F1.9°C 33.4°F0.8°C 92% 16.0 mph SE25.7 kmh SE 17.0 mph27.4 kmh 29.93 in1013.5 mb 0.00 in0.0 mm 0.00 in/hr0.0 mm/hr 0.00 in0.0 mm
01:01 AM 35.6°F2.0°C 33.5°F0.8°C 92% 11.0 mph SE17.7 kmh SE 17.0 mph27.4 kmh 29.93 in1013.5 mb 0.00 in0.0 mm 0.00 in/hr0.0 mm/hr 0.00 in0.0 mm
01:15 AM 35.7°F2.1°C 33.6°F0.9°C 92% 13.0 mph SE20.9 kmh SE 17.0 mph27.4 kmh 29.92 in1013.2 mb 0.00 in0.0 mm 0.00 in/hr0.0 mm/hr 0.00 in0.0 mm
01:30 AM 35.7°F2.1°C 33.6°F0.9°C 92% 14.0 mph SE22.5 kmh SE 18.0 mph29.0 kmh 29.92 in1013.2 mb 0.00 in0.0 mm 0.00 in/hr0.0 mm/hr 0.00 in0.0 mm
01:45 AM 35.6°F2.0°C 33.5°F0.8°C 92% 16.0 mph SSE25.7 kmh SSE 17.0 mph27.4 kmh 29.91 in1012.9 mb 0.00 in0.0 mm 0.00 in/hr0.0 mm/hr 0.00 in0.0 mm
02:01 AM 35.5°F1.9°C 33.7°F0.9°C 93% 12.0 mph SE19.3 kmh SE 16.0 mph25.7 kmh 29.90 in1012.5 mb 0.00 in0.0 mm 0.00 in/hr0.0 mm/hr 0.00 in0.0 mm
02:15 AM 35.6°F2.0°C 33.5°F0.8°C 92% 12.0 mph SSE19.3 kmh SSE 16.0 mph25.7 kmh 29.89 in1012.2 mb 0.00 in0.0 mm 0.00 in/hr0.0 mm/hr 0.00 in0.0 mm
02:30 AM 35.6°F2.0°C 33.8°F1.0°C 93% 13.0 mph SE20.9 kmh SE 15.0 mph24.1 kmh 29.88 in1011.9 mb 0.00 in0.0 mm 0.00 in/hr0.0 mm/hr 0.00 in0.0 mm
02:45 AM 35.7°F2.1°C 33.9°F1.1°C 93% 12.0 mph SE19.3 kmh SE 15.0 mph24.1 kmh 29.86 in1011.2 mb 0.00 in0.0 mm 0.00 in/hr0.0 mm/hr 0.00 in0.0 mm
03:01 AM 35.6°F2.0°C 33.8°F1.0°C 93% 12.0 mph SSE19.3 kmh SSE 14.0 mph22.5 kmh 29.86 in1011.2 mb 0.00 in0.0 mm 0.00 in/hr0.0 mm/hr 0.00 in0.0 mm
03:15 AM 35.5°F1.9°C 33.7°F0.9°C 93% 10.0 mph SSE16.1 kmh SSE 13.0 mph20.9 kmh 29.86 in1011.2 mb 0.00 in0.0 mm 0.00 in/hr0.0 mm/hr 0.00 in0.0 mm
03:30 AM 35.4°F1.9°C 33.6°F0.9°C 93% 12.0 mph SSE19.3 kmh SSE 14.0 mph22.5 kmh 29.85 in1010.8 mb 0.00 in0.0 mm 0.00 in/hr0.0 mm/hr 0.00 in0.0 mm
03:45 AM 35.4°F1.9°C 33.6°F0.9°C 93% 13.0 mph S20.9 kmh S 14.0 mph22.5 kmh 29.85 in1010.8 mb 0.00 in0.0 mm 0.00 in/hr0.0 mm/hr 0.00 in0.0 mm
04:01 AM 35.3°F1.8°C 33.5°F0.8°C 93% 9.0 mph S14.5 kmh S 14.0 mph22.5 kmh 29.85 in1010.8 mb 0.00 in0.0 mm 0.00 in/hr0.0 mm/hr 0.00 in0.0 mm
04:15 AM 35.2°F1.8°C 33.4°F0.8°C 93% 10.0 mph S16.1 kmh S 13.0 mph20.9 kmh 29.85 in1010.8 mb 0.00 in0.0 mm 0.00 in/hr0.0 mm/hr 0.00 in0.0 mm
04:31 AM 35.0°F1.7°C 33.5°F0.8°C 94% 11.0 mph S17.7 kmh S 12.0 mph19.3 kmh 29.84 in1010.5 mb 0.00 in0.0 mm 0.00 in/hr0.0 mm/hr 0.00 in0.0 mm
04:45 AM 35.0°F1.7°C 33.5°F0.8°C 94% 9.0 mph S14.5 kmh S 10.0 mph16.1 kmh 29.83 in1010.2 mb 0.00 in0.0 mm 0.00 in/hr0.0 mm/hr 0.00 in0.0 mm
05:01 AM 35.0°F1.7°C 33.5°F0.8°C 94% 7.0 mph SSE11.3 kmh SSE 11.0 mph17.7 kmh 29.80 in1009.1 mb 0.00 in0.0 mm 0.00 in/hr0.0 mm/hr 0.00 in0.0 mm
05:15 AM 35.1°F1.7°C 33.6°F0.9°C 94% 8.0 mph SE12.9 kmh SE 10.0 mph16.1 kmh 29.79 in1008.8 mb 0.00 in0.0 mm 0.00 in/hr0.0 mm/hr 0.00 in0.0 mm
05:30 AM 35.0°F1.7°C 33.5°F0.8°C 94% 8.0 mph SE12.9 kmh SE 9.0 mph14.5 kmh 29.77 in1008.1 mb 0.00 in0.0 mm 0.00 in/hr0.0 mm/hr 0.00 in0.0 mm
05:45 AM 35.0°F1.7°C 33.5°F0.8°C 94% 8.0 mph SE12.9 kmh SE 10.0 mph16.1 kmh 29.75 in1007.5 mb 0.00 in0.0 mm 0.00 in/hr0.0 mm/hr 0.00 in0.0 mm
06:01 AM 35.3°F1.8°C 33.8°F1.0°C 94% 8.0 mph SE12.9 kmh SE 13.0 mph20.9 kmh 29.74 in1007.1 mb 0.00 in0.0 mm 0.00 in/hr0.0 mm/hr 0.00 in0.0 mm
06:15 AM 35.9°F2.2°C 34.4°F1.3°C 94% 12.0 mph SE19.3 kmh SE 14.0 mph22.5 kmh 29.72 in1006.4 mb 0.00 in0.0 mm 0.00 in/hr0.0 mm/hr 0.00 in0.0 mm
06:30 AM 36.1°F2.3°C 34.5°F1.4°C 94% 11.0 mph SE17.7 kmh SE 14.0 mph22.5 kmh 29.71 in1006.1 mb 0.00 in0.0 mm 0.00 in/hr0.0 mm/hr 0.00 in0.0 mm
06:45 AM 36.2°F2.3°C 34.6°F1.4°C 94% 10.0 mph SE16.1 kmh SE 13.0 mph20.9 kmh 29.70 in1005.8 mb 0.00 in0.0 mm 0.00 in/hr0.0 mm/hr 0.00 in0.0 mm
07:01 AM 36.2°F2.3°C 34.9°F1.6°C 95% 10.0 mph ESE16.1 kmh ESE 13.0 mph20.9 kmh 29.68 in1005.1 mb 0.00 in0.0 mm 0.00 in/hr0.0 mm/hr 0.00 in0.0 mm
07:15 AM 36.2°F2.3°C 34.9°F1.6°C 95% 10.0 mph SE16.1 kmh SE 12.0 mph19.3 kmh 29.68 in1005.1 mb 0.00 in0.0 mm 0.00 in/hr0.0 mm/hr 0.00 in0.0 mm
07:30 AM 36.5°F2.5°C 35.2°F1.8°C 95% 11.0 mph SE17.7 kmh SE 14.0 mph22.5 kmh 29.67 in1004.7 mb 0.00 in0.0 mm 0.00 in/hr0.0 mm/hr 0.00 in0.0 mm
07:45 AM 36.5°F2.5°C 35.2°F1.8°C 95% 8.0 mph SE12.9 kmh SE 11.0 mph17.7 kmh 29.66 in1004.4 mb 0.00 in0.0 mm 0.00 in/hr0.0 mm/hr 0.00 in0.0 mm
08:01 AM 36.4°F2.4°C 35.1°F1.7°C 95% 7.0 mph SE11.3 kmh SE 10.0 mph16.1 kmh 29.64 in1003.7 mb 0.00 in0.0 mm 0.00 in/hr0.0 mm/hr 0.00 in0.0 mm
08:15 AM 36.4°F2.4°C 35.1°F1.7°C 95% 6.0 mph SE9.7 kmh SE 8.0 mph12.9 kmh 29.62 in1003.0 mb 0.00 in0.0 mm 0.00 in/hr0.0 mm/hr 0.00 in0.0 mm
08:30 AM 36.2°F2.3°C 34.9°F1.6°C 95% 8.0 mph SE12.9 kmh SE 10.0 mph16.1 kmh 29.60 in1002.4 mb 0.00 in0.0 mm 0.00 in/hr0.0 mm/hr 0.00 in0.0 mm
08:45 AM 36.1°F2.3°C 35.1°F1.7°C 96% 8.0 mph SE12.9 kmh SE 10.0 mph16.1 kmh 29.59 in1002.0 mb 0.00 in0.0 mm 0.00 in/hr0.0 mm/hr 0.00 in0.0 mm
09:01 AM 36.0°F2.2°C 35.0°F1.7°C 96% 7.0 mph SE11.3 kmh SE 8.0 mph12.9 kmh 29.58 in1001.7 mb 0.00 in0.0 mm 0.00 in/hr0.0 mm/hr 0.00 in0.0 mm
09:15 AM 36.1°F2.3°C 35.1°F1.7°C 96% 6.0 mph SE9.7 kmh SE 8.0 mph12.9 kmh 29.57 in1001.4 mb 0.00 in0.0 mm 0.00 in/hr0.0 mm/hr 0.00 in0.0 mm
09:30 AM 36.0°F2.2°C 35.0°F1.7°C 96% 6.0 mph SE9.7 kmh SE 8.0 mph12.9 kmh 29.56 in1001.0 mb 0.00 in0.0 mm 0.00 in/hr0.0 mm/hr 0.00 in0.0 mm
09:45 AM 36.0°F2.2°C 35.0°F1.7°C 96% 7.0 mph SE11.3 kmh SE 9.0 mph14.5 kmh 29.55 in1000.7 mb 0.00 in0.0 mm 0.00 in/hr0.0 mm/hr 0.00 in0.0 mm
10:01 AM 36.3°F2.4°C 35.0°F1.7°C 95% 9.0 mph SE14.5 kmh SE 11.0 mph17.7 kmh 29.53 in1000.0 mb 0.00 in0.0 mm 0.00 in/hr0.0 mm/hr 0.00 in0.0 mm
10:15 AM 36.3°F2.4°C 35.0°F1.7°C 95% 7.0 mph SE11.3 kmh SE 10.0 mph16.1 kmh 29.52 in999.7 mb 0.00 in0.0 mm 0.00 in/hr0.0 mm/hr 0.00 in0.0 mm
10:30 AM 36.3°F2.4°C 35.0°F1.7°C 95% 6.0 mph SSE9.7 kmh SSE 9.0 mph14.5 kmh 29.51 in999.3 mb 0.00 in0.0 mm 0.00 in/hr0.0 mm/hr 0.00 in0.0 mm
10:45 AM 36.2°F2.3°C 35.2°F1.8°C 96% 6.0 mph SE9.7 kmh SE 8.0 mph12.9 kmh 29.51 in999.3 mb 0.00 in0.0 mm 0.00 in/hr0.0 mm/hr 0.00 in0.0 mm
11:01 AM 36.1°F2.3°C 34.8°F1.6°C 95% 4.0 mph S6.4 kmh S 7.0 mph11.3 kmh 29.50 in999.0 mb 0.00 in0.0 mm 0.00 in/hr0.0 mm/hr 0.00 in0.0 mm
11:15 AM 36.6°F2.6°C 35.8°F2.1°C 97% 5.0 mph S8.0 kmh S 14.0 mph22.5 kmh 29.49 in998.6 mb 0.02 in0.5 mm 0.09 in/hr2.3 mm/hr 0.02 in0.5 mm
11:31 AM 36.3°F2.4°C 35.0°F1.7°C 95% 5.0 mph SSW8.0 kmh SSW 6.0 mph9.7 kmh 29.47 in998.0 mb 0.02 in0.5 mm 0.00 in/hr0.0 mm/hr 0.02 in0.5 mm
11:45 AM 35.9°F2.2°C 34.9°F1.6°C 96% 4.0 mph SSW6.4 kmh SSW 6.0 mph9.7 kmh 29.47 in998.0 mb 0.02 in0.5 mm 0.00 in/hr0.0 mm/hr 0.02 in0.5 mm
12:01 PM 36.1°F2.3°C 35.1°F1.7°C 96% 8.0 mph S12.9 kmh S 9.0 mph14.5 kmh 29.45 in997.3 mb 0.02 in0.5 mm 0.00 in/hr0.0 mm/hr 0.02 in0.5 mm
12:15 PM 36.2°F2.3°C 35.2°F1.8°C 96% 6.0 mph SSW9.7 kmh SSW 8.0 mph12.9 kmh 29.44 in997.0 mb 0.02 in0.5 mm 0.00 in/hr0.0 mm/hr 0.02 in0.5 mm
12:31 PM 36.4°F2.4°C 35.4°F1.9°C 96% 5.0 mph SSW8.0 kmh SSW 7.0 mph11.3 kmh 29.42 in996.3 mb 0.00 in0.0 mm 0.00 in/hr0.0 mm/hr 0.02 in0.5 mm
12:45 PM 36.5°F2.5°C 35.5°F1.9°C 96% 5.0 mph SSW8.0 kmh SSW 7.0 mph11.3 kmh 29.41 in995.9 mb 0.00 in0.0 mm 0.00 in/hr0.0 mm/hr 0.02 in0.5 mm
01:01 PM 36.2°F2.3°C 35.2°F1.8°C 96% 4.0 mph SW6.4 kmh SW 5.0 mph8.0 kmh 29.41 in995.9 mb 0.00 in0.0 mm 0.00 in/hr0.0 mm/hr 0.02 in0.5 mm
01:15 PM 36.7°F2.6°C 35.7°F2.1°C 96% 6.0 mph SW9.7 kmh SW 8.0 mph12.9 kmh 29.40 in995.6 mb 0.00 in0.0 mm 0.00 in/hr0.0 mm/hr 0.02 in0.5 mm
01:30 PM 37.9°F3.3°C 36.9°F2.7°C 96% 10.0 mph SW16.1 kmh SW 14.0 mph22.5 kmh 29.40 in995.6 mb 0.02 in0.5 mm 0.08 in/hr2.0 mm/hr 0.04 in1.0 mm
01:45 PM 37.7°F3.2°C 36.7°F2.6°C 96% 6.0 mph WSW9.7 kmh WSW 10.0 mph16.1 kmh 29.39 in995.3 mb 0.04 in1.0 mm 0.08 in/hr2.0 mm/hr 0.06 in1.5 mm
02:01 PM 37.8°F3.2°C 36.8°F2.7°C 96% 9.0 mph WSW14.5 kmh WSW 13.0 mph20.9 kmh 29.38 in994.9 mb 0.04 in1.0 mm 0.00 in/hr0.0 mm/hr 0.06 in1.5 mm
02:15 PM 38.8°F3.8°C 37.8°F3.2°C 96% 5.0 mph W8.0 kmh W 9.0 mph14.5 kmh 29.38 in994.9 mb 0.05 in1.3 mm 0.04 in/hr1.0 mm/hr 0.07 in1.8 mm
02:30 PM 38.8°F3.8°C 37.0°F2.8°C 93% 7.0 mph WNW11.3 kmh WNW 14.0 mph22.5 kmh 29.38 in994.9 mb 0.03 in0.8 mm 0.00 in/hr0.0 mm/hr 0.07 in1.8 mm
02:45 PM 38.3°F3.5°C 36.2°F2.3°C 92% 8.0 mph W12.9 kmh W 11.0 mph17.7 kmh 29.38 in994.9 mb 0.03 in0.8 mm 0.00 in/hr0.0 mm/hr 0.07 in1.8 mm
03:01 PM 37.9°F3.3°C 35.8°F2.1°C 92% 4.0 mph W6.4 kmh W 12.0 mph19.3 kmh 29.39 in995.3 mb 0.01 in0.3 mm 0.00 in/hr0.0 mm/hr 0.07 in1.8 mm
03:15 PM 37.7°F3.2°C 35.3°F1.8°C 91% 10.0 mph WSW16.1 kmh WSW 12.0 mph19.3 kmh 29.40 in995.6 mb 0.01 in0.3 mm 0.00 in/hr0.0 mm/hr 0.07 in1.8 mm
03:31 PM 37.4°F3.0°C 34.7°F1.5°C 90% 7.0 mph NW11.3 kmh NW 14.0 mph22.5 kmh 29.41 in995.9 mb 0.00 in0.0 mm 0.00 in/hr0.0 mm/hr 0.07 in1.8 mm
03:45 PM 37.2°F2.9°C 34.5°F1.4°C 90% 9.0 mph WNW14.5 kmh WNW 15.0 mph24.1 kmh 29.42 in996.3 mb 0.00 in0.0 mm 0.00 in/hr0.0 mm/hr 0.07 in1.8 mm
04:01 PM 36.9°F2.7°C 34.0°F1.1°C 89% 5.0 mph WNW8.0 kmh WNW 16.0 mph25.7 kmh 29.44 in997.0 mb 0.00 in0.0 mm 0.00 in/hr0.0 mm/hr 0.07 in1.8 mm
04:15 PM 36.1°F2.3°C 33.5°F0.8°C 90% 9.0 mph W14.5 kmh W 16.0 mph25.7 kmh 29.44 in997.0 mb 0.00 in0.0 mm 0.00 in/hr0.0 mm/hr 0.07 in1.8 mm
04:30 PM 35.8°F2.1°C 33.2°F0.7°C 90% 9.0 mph NW14.5 kmh NW 14.0 mph22.5 kmh 29.47 in998.0 mb 0.00 in0.0 mm 0.00 in/hr0.0 mm/hr 0.07 in1.8 mm
04:45 PM 35.9°F2.2°C 33.3°F0.7°C 90% 6.0 mph WNW9.7 kmh WNW 12.0 mph19.3 kmh 29.48 in998.3 mb 0.00 in0.0 mm 0.00 in/hr0.0 mm/hr 0.07 in1.8 mm
05:01 PM 35.7°F2.1°C 33.1°F0.6°C 90% 13.0 mph W20.9 kmh W 17.0 mph27.4 kmh 29.50 in999.0 mb 0.01 in0.3 mm 0.01 in/hr0.3 mm/hr 0.08 in2.0 mm
05:15 PM 35.2°F1.8°C 32.6°F0.3°C 90% 9.0 mph WNW14.5 kmh WNW 20.0 mph32.2 kmh 29.51 in999.3 mb 0.01 in0.3 mm 0.00 in/hr0.0 mm/hr 0.08 in2.0 mm
05:30 PM 35.5°F1.9°C 32.6°F0.3°C 89% 14.0 mph NW22.5 kmh NW 17.0 mph27.4 kmh 29.53 in1000.0 mb 0.01 in0.3 mm 0.00 in/hr0.0 mm/hr 0.08 in2.0 mm
05:45 PM 35.6°F2.0°C 32.1°F0.1°C 87% 4.0 mph NW6.4 kmh NW 13.0 mph20.9 kmh 29.55 in1000.7 mb 0.01 in0.3 mm 0.00 in/hr0.0 mm/hr 0.08 in2.0 mm
06:01 PM 35.6°F2.0°C 31.5°F-0.3°C 85% 4.0 mph WSW6.4 kmh WSW 15.0 mph24.1 kmh 29.56 in1001.0 mb 0.00 in0.0 mm 0.00 in/hr0.0 mm/hr 0.08 in2.0 mm
06:16 PM 35.6°F2.0°C 31.3°F-0.4°C 84% 10.0 mph W16.1 kmh W 19.0 mph30.6 kmh 29.57 in1001.4 mb 0.00 in0.0 mm 0.00 in/hr0.0 mm/hr 0.08 in2.0 mm
06:31 PM 34.8°F1.6°C 31.6°F-0.2°C 88% 12.0 mph W19.3 kmh W 15.0 mph24.1 kmh 29.59 in1002.0 mb 0.00 in0.0 mm 0.00 in/hr0.0 mm/hr 0.08 in2.0 mm
06:46 PM 34.5°F1.4°C 31.0°F-0.6°C 87% 9.0 mph WSW14.5 kmh WSW 17.0 mph27.4 kmh 29.60 in1002.4 mb 0.00 in0.0 mm 0.00 in/hr0.0 mm/hr 0.08 in2.0 mm
07:01 PM 34.6°F1.4°C 30.9°F-0.6°C 86% 12.0 mph W19.3 kmh W 22.0 mph35.4 kmh 29.62 in1003.0 mb 0.00 in0.0 mm 0.00 in/hr0.0 mm/hr 0.08 in2.0 mm
07:15 PM 33.5°F0.8°C 30.9°F-0.6°C 90% 8.0 mph WNW12.9 kmh WNW 20.0 mph32.2 kmh 29.62 in1003.0 mb 0.00 in0.0 mm 0.00 in/hr0.0 mm/hr 0.08 in2.0 mm
07:31 PM 32.8°F0.4°C 30.7°F-0.7°C 92% 6.0 mph W9.7 kmh W 20.0 mph32.2 kmh 29.64 in1003.7 mb 0.00 in0.0 mm 0.00 in/hr0.0 mm/hr 0.08 in2.0 mm
07:45 PM 32.5°F0.3°C 30.7°F-0.7°C 93% 8.0 mph W12.9 kmh W 16.0 mph25.7 kmh 29.65 in1004.1 mb 0.00 in0.0 mm 0.00 in/hr0.0 mm/hr 0.08 in2.0 mm
08:01 PM 32.8°F0.4°C 30.2°F-1.0°C 90% 8.0 mph WNW12.9 kmh WNW 15.0 mph24.1 kmh 29.65 in1004.1 mb 0.00 in0.0 mm 0.00 in/hr0.0 mm/hr 0.08 in2.0 mm
08:15 PM 32.9°F0.5°C 29.5°F-1.4°C 87% 15.0 mph W24.1 kmh W 19.0 mph30.6 kmh 29.66 in1004.4 mb 0.00 in0.0 mm 0.00 in/hr0.0 mm/hr 0.08 in2.0 mm
08:30 PM 32.9°F0.5°C 28.3°F-2.1°C 83% 8.0 mph W12.9 kmh W 13.0 mph20.9 kmh 29.67 in1004.7 mb 0.00 in0.0 mm 0.00 in/hr0.0 mm/hr 0.08 in2.0 mm
08:45 PM 32.6°F0.3°C 27.1°F-2.7°C 80% 12.0 mph NW19.3 kmh NW 20.0 mph32.2 kmh 29.68 in1005.1 mb 0.00 in0.0 mm 0.00 in/hr0.0 mm/hr 0.08 in2.0 mm
09:00 PM 32.4°F0.2°C 27.2°F-2.7°C 81% 4.0 mph WNW6.4 kmh WNW 14.0 mph22.5 kmh 29.69 in1005.4 mb 0.00 in0.0 mm 0.00 in/hr0.0 mm/hr 0.08 in2.0 mm
09:16 PM 32.3°F0.2°C 26.8°F-2.9°C 80% 10.0 mph NW16.1 kmh NW 17.0 mph27.4 kmh 29.69 in1005.4 mb 0.00 in0.0 mm 0.00 in/hr0.0 mm/hr 0.08 in2.0 mm
09:30 PM 32.3°F0.2°C 26.5°F-3.1°C 79% 13.0 mph NW20.9 kmh NW 17.0 mph27.4 kmh 29.70 in1005.8 mb 0.00 in0.0 mm 0.00 in/hr0.0 mm/hr 0.08 in2.0 mm
09:45 PM 32.2°F0.1°C 26.4°F-3.1°C 79% 10.0 mph NW16.1 kmh NW 14.0 mph22.5 kmh 29.71 in1006.1 mb 0.00 in0.0 mm 0.00 in/hr0.0 mm/hr 0.08 in2.0 mm
10:02 PM 32.1°F0.1°C 25.7°F-3.5°C 77% 8.0 mph W12.9 kmh W 15.0 mph24.1 kmh 29.70 in1005.8 mb 0.00 in0.0 mm 0.00 in/hr0.0 mm/hr 0.08 in2.0 mm
10:15 PM 31.9°F-0.1°C 25.8°F-3.4°C 78% 5.0 mph NW8.0 kmh NW 15.0 mph24.1 kmh 29.71 in1006.1 mb 0.00 in0.0 mm 0.00 in/hr0.0 mm/hr 0.08 in2.0 mm
10:30 PM 31.9°F-0.1°C 24.9°F-3.9°C 75% 15.0 mph WNW24.1 kmh WNW 18.0 mph29.0 kmh 29.70 in1005.8 mb 0.00 in0.0 mm 0.00 in/hr0.0 mm/hr 0.08 in2.0 mm
10:45 PM 31.8°F-0.1°C 24.5°F-4.2°C 74% 8.0 mph NW12.9 kmh NW 20.0 mph32.2 kmh 29.70 in1005.8 mb 0.00 in0.0 mm 0.00 in/hr0.0 mm/hr 0.08 in2.0 mm
11:01 PM 31.7°F-0.2°C 24.1°F-4.4°C 73% 7.0 mph NW11.3 kmh NW 17.0 mph27.4 kmh 29.70 in1005.8 mb 0.00 in0.0 mm 0.00 in/hr0.0 mm/hr 0.08 in2.0 mm
11:15 PM 31.6°F-0.2°C 24.0°F-4.4°C 73% 13.0 mph WSW20.9 kmh WSW 16.0 mph25.7 kmh 29.71 in1006.1 mb 0.00 in0.0 mm 0.00 in/hr0.0 mm/hr 0.08 in2.0 mm
11:30 PM 31.5°F-0.3°C 24.2°F-4.3°C 74% 16.0 mph W25.7 kmh W 16.0 mph25.7 kmh 29.71 in1006.1 mb 0.00 in0.0 mm 0.00 in/hr0.0 mm/hr 0.08 in2.0 mm
11:45 PM 31.2°F-0.4°C 24.5°F-4.2°C 76% 8.0 mph NW12.9 kmh NW 15.0 mph24.1 kmh 29.72 in1006.4 mb 0.00 in0.0 mm 0.00 in/hr0.0 mm/hr 0.08 in2.0 mm